Terminal Aerodrome Forecast
Issued by NWS Tuscon, AZ

Home | Current Version | Previous Version | Text Only | Print | Product List | Glossary On
Versions: 1 2 3 4 5 6 7 8 9 10 11 12 13 14
000
FTUS45 KTWC 251124
TAFDUG
TAF
KDUG 251124Z 2512/2612 VRB04KT P6SM SKC
     FM251600 20012G18KT P6SM FEW100
     FM252000 24020G30KT P6SM FEW080 SCT200
     FM260300 22011G18KT P6SM SCT080 BKN200=

USA.gov is the U.S. government's official web portal to all federal, state and local government web resources and services.